Time;durP1;ratioP1;P1;durP2;ratioP2;P2;SDS_P1;SDS_P2;PMS_P1;PMS_P2;Temp;Humidity;BMP_temperature;BMP_pressure;BME280_temperature;BME280_humidity;BME280_pressure;Samples;Min_cycle;Max_cycle;Signal;HPM_P1;HPM_P2
2022/09/03 00:01:20;;;;;;;11.05;6.15;;;;;;;;;;4991011;28;20239;-73
2022/09/03 00:04:36;;;;;;;15.57;6.55;;;;;;;;;;4991160;28;20047;-73
2022/09/03 00:08:01;;;;;;;14.88;6.45;;;;;;;;;;4991508;28;20652;-73
2022/09/03 00:11:17;;;;;;;12.88;7.35;;;;;;;;;;4991292;28;20034;-73
2022/09/03 00:14:27;;;;;;;13.38;6.65;;;;;;;;;;4991609;28;20057;-73
2022/09/03 00:17:37;;;;;;;14.48;7.15;;;;;;;;;;4991260;28;20058;-73
2022/09/03 00:20:44;;;;;;;19.10;8.17;;;;;;;;;;4991303;28;20054;-73
2022/09/03 00:23:49;;;;;;;12.07;7.60;;;;;;;;;;4991626;28;20398;-73
2022/09/03 00:26:56;;;;;;;16.20;8.07;;;;;;;;;;4990477;28;20050;-73
2022/09/03 00:30:04;;;;;;;16.25;8.25;;;;;;;;;;4991504;28;20069;-73
2022/09/03 00:33:11;;;;;;;16.75;8.50;;;;;;;;;;4991116;28;20390;-73
2022/09/03 00:36:25;;;;;;;16.88;8.77;;;;;;;;;;4995165;28;20045;-73
2022/09/03 00:39:29;;;;;;;18.25;7.82;;;;;;;;;;4994053;28;20039;-73
2022/09/03 00:42:47;;;;;;;16.83;8.23;;;;;;;;;;4994130;28;20051;-73
2022/09/03 00:46:17;;;;;;;14.93;7.20;;;;;;;;;;4994777;28;20229;-73
2022/09/03 00:49:24;;;;;;;14.45;7.20;;;;;;;;;;4998074;28;20038;-73
2022/09/03 00:52:29;;;;;;;15.48;8.85;;;;;;;;;;4994689;28;20038;-73
2022/09/03 00:55:50;;;;;;;20.05;8.13;;;;;;;;;;5005277;28;20042;-73
2022/09/03 00:58:57;;;;;;;13.73;8.07;;;;;;;;;;4994460;28;20371;-73
2022/09/03 01:02:17;;;;;;;15.75;7.88;;;;;;;;;;4994572;28;20308;-73
2022/09/03 01:05:27;;;;;;;19.63;7.97;;;;;;;;;;4994335;28;20037;-73
2022/09/03 01:08:50;;;;;;;13.63;6.25;;;;;;;;;;4993782;28;20053;-73
2022/09/03 01:12:04;;;;;;;18.92;7.22;;;;;;;;;;5004880;28;20041;-73
2022/09/03 01:15:28;;;;;;;16.52;6.38;;;;;;;;;;4994257;28;20042;-73
2022/09/03 01:18:40;;;;;;;11.57;6.47;;;;;;;;;;4994069;28;20235;-73
2022/09/03 01:22:08;;;;;;;13.80;6.15;;;;;;;;;;4994104;28;20061;-73
2022/09/03 01:25:16;;;;;;;16.80;6.28;;;;;;;;;;4997705;28;20046;-73
2022/09/03 01:28:41;;;;;;;13.57;5.95;;;;;;;;;;4993909;28;20398;-73
2022/09/03 01:31:52;;;;;;;11.13;6.53;;;;;;;;;;4994061;28;20046;-73
2022/09/03 01:35:15;;;;;;;17.00;6.97;;;;;;;;;;4994279;28;20046;-73
2022/09/03 01:38:19;;;;;;;9.27;6.10;;;;;;;;;;4994118;28;20515;-72
2022/09/03 01:45:06;;;;;;;11.98;7.05;;;;;;;;;;4993471;28;20046;-73
2022/09/03 01:48:33;;;;;;;14.45;6.65;;;;;;;;;;4993854;28;20042;-73
2022/09/03 01:51:38;;;;;;;10.88;6.40;;;;;;;;;;4992755;28;20046;-73
2022/09/03 01:54:43;;;;;;;11.93;6.97;;;;;;;;;;5004240;28;20034;-73
2022/09/03 01:57:55;;;;;;;9.93;6.18;;;;;;;;;;4993288;28;20038;-73
2022/09/03 02:00:58;;;;;;;;;;;;;;;;;;4993725;28;20054;-73
2022/09/03 02:04:13;;;;;;;17.05;6.70;;;;;;;;;;4992769;28;19921;-73
2022/09/03 02:07:17;;;;;;;15.38;7.03;;;;;;;;;;4993447;28;20055;-72
2022/09/03 02:10:39;;;;;;;11.18;7.22;;;;;;;;;;4993309;28;20038;-72
2022/09/03 02:13:51;;;;;;;16.23;7.10;;;;;;;;;;5003682;28;20041;-73
2022/09/03 02:16:57;;;;;;;13.13;7.18;;;;;;;;;;4992732;28;20043;-73
2022/09/03 02:20:04;;;;;;;17.02;7.68;;;;;;;;;;4992335;28;20030;-73
2022/09/03 02:23:08;;;;;;;19.40;7.78;;;;;;;;;;4993120;28;20541;-72
2022/09/03 02:26:16;;;;;;;17.30;7.68;;;;;;;;;;4992939;28;20035;-73
2022/09/03 02:29:21;;;;;;;13.07;7.10;;;;;;;;;;4992049;28;20042;-72
2022/09/03 02:32:25;;;;;;;13.35;6.80;;;;;;;;;;4993212;28;20034;-73
2022/09/03 02:35:30;;;;;;;9.63;6.05;;;;;;;;;;4993362;28;20053;-73
2022/09/03 02:38:34;;;;;;;9.23;5.93;;;;;;;;;;4992726;28;20042;-73
2022/09/03 02:41:38;;;;;;;10.52;6.93;;;;;;;;;;4992856;28;20478;-73
2022/09/03 02:44:53;;;;;;;14.27;6.68;;;;;;;;;;4993851;28;20480;-73
2022/09/03 02:47:59;;;;;;;13.95;7.00;;;;;;;;;;4992121;28;20053;-73
2022/09/03 02:51:03;;;;;;;14.13;5.97;;;;;;;;;;4992468;28;20045;-73
2022/09/03 02:54:08;;;;;;;11.68;6.10;;;;;;;;;;4992339;28;20038;-73
2022/09/03 02:57:14;;;;;;;10.13;6.72;;;;;;;;;;4991833;28;20591;-73
2022/09/03 03:00:18;;;;;;;10.23;6.70;;;;;;;;;;4992429;28;20398;-73
2022/09/03 03:03:24;;;;;;;14.77;6.22;;;;;;;;;;5003070;28;20046;-73
2022/09/03 03:06:28;;;;;;;13.45;5.95;;;;;;;;;;4992531;28;20046;-73
2022/09/03 03:09:32;;;;;;;14.40;5.80;;;;;;;;;;5003049;28;20034;-73
2022/09/03 03:12:36;;;;;;;17.17;5.78;;;;;;;;;;5002588;28;20030;-73
2022/09/03 03:15:41;;;;;;;12.93;6.20;;;;;;;;;;4992496;28;20034;-73
2022/09/03 03:18:45;;;;;;;12.30;5.57;;;;;;;;;;4991899;28;20050;-73
2022/09/03 03:21:49;;;;;;;10.48;5.15;;;;;;;;;;4992200;28;20046;-73
2022/09/03 03:24:55;;;;;;;7.82;5.05;;;;;;;;;;5002420;28;20051;-73
2022/09/03 03:27:59;;;;;;;10.23;5.30;;;;;;;;;;4991811;28;20518;-73
2022/09/03 03:31:07;;;;;;;12.07;5.63;;;;;;;;;;4991286;28;20390;-73
2022/09/03 03:34:11;;;;;;;11.98;6.25;;;;;;;;;;4991984;28;20042;-73
2022/09/03 03:37:16;;;;;;;13.30;6.05;;;;;;;;;;4991676;28;20043;-73
2022/09/03 03:40:20;;;;;;;11.02;6.32;;;;;;;;;;4991024;28;20042;-73
2022/09/03 03:43:24;;;;;;;10.93;6.45;;;;;;;;;;4991920;28;20053;-73
2022/09/03 03:46:30;;;;;;;10.60;6.82;;;;;;;;;;4991840;28;20390;-73
2022/09/03 03:49:34;;;;;;;10.48;7.00;;;;;;;;;;4990738;28;20445;-73
2022/09/03 03:52:39;;;;;;;11.30;6.45;;;;;;;;;;4991942;28;20038;-73
2022/09/03 03:55:43;;;;;;;9.50;5.97;;;;;;;;;;4991441;28;20042;-73
2022/09/03 03:58:47;;;;;;;8.27;5.88;;;;;;;;;;4991661;28;20043;-73
2022/09/03 04:01:54;;;;;;;10.18;5.88;;;;;;;;;;4991490;28;20050;-73
2022/09/03 04:04:58;;;;;;;12.50;6.05;;;;;;;;;;4991392;28;20501;-73
2022/09/03 04:08:02;;;;;;;9.93;5.65;;;;;;;;;;4992578;28;20042;-73
2022/09/03 04:11:08;;;;;;;10.88;5.30;;;;;;;;;;4994817;28;20030;-73
2022/09/03 04:14:13;;;;;;;6.95;5.18;;;;;;;;;;4994577;28;20438;-73
2022/09/03 04:17:17;;;;;;;9.35;5.60;;;;;;;;;;4995371;28;20042;-73
2022/09/03 04:20:21;;;;;;;12.10;5.60;;;;;;;;;;4995093;28;20383;-73
2022/09/03 04:23:26;;;;;;;12.95;6.10;;;;;;;;;;4995482;28;20054;-73
2022/09/03 04:26:31;;;;;;;11.30;5.75;;;;;;;;;;4994621;28;20042;-73
2022/09/03 04:29:36;;;;;;;10.27;5.40;;;;;;;;;;4994468;28;20379;-73
2022/09/03 04:32:52;;;;;;;11.65;5.45;;;;;;;;;;4995263;28;20041;-73
2022/09/03 04:36:04;;;;;;;11.15;5.65;;;;;;;;;;4995172;28;20504;-73
2022/09/03 04:39:08;;;;;;;9.52;5.75;;;;;;;;;;4995151;28;20525;-73
2022/09/03 04:42:12;;;;;;;8.75;5.55;;;;;;;;;;4994706;28;20046;-73
2022/09/03 04:45:18;;;;;;;12.10;6.35;;;;;;;;;;4995154;28;20482;-73
2022/09/03 04:48:22;;;;;;;9.63;5.07;;;;;;;;;;4993885;28;20042;-73
2022/09/03 04:51:28;;;;;;;14.40;5.90;;;;;;;;;;4994764;28;20402;-73
2022/09/03 04:54:33;;;;;;;12.07;5.78;;;;;;;;;;4995009;28;20375;-73
2022/09/03 04:57:37;;;;;;;15.95;5.88;;;;;;;;;;5005079;28;20054;-73
2022/09/03 05:00:41;;;;;;;8.55;5.20;;;;;;;;;;4994655;28;20053;-73
2022/09/03 05:03:46;;;;;;;7.28;5.18;;;;;;;;;;4994787;28;20058;-73
2022/09/03 05:06:50;;;;;;;12.93;4.90;;;;;;;;;;4994366;28;20039;-73
2022/09/03 05:09:55;;;;;;;7.63;4.40;;;;;;;;;;4994700;28;20053;-73
2022/09/03 05:13:01;;;;;;;9.57;4.40;;;;;;;;;;4994155;28;20043;-73
2022/09/03 05:16:09;;;;;;;6.88;4.15;;;;;;;;;;4994392;28;20042;-73
2022/09/03 05:19:14;;;;;;;10.10;5.45;;;;;;;;;;4993476;28;20498;-73
2022/09/03 05:22:21;;;;;;;10.00;4.80;;;;;;;;;;4994152;28;20049;-73
2022/09/03 05:25:26;;;;;;;6.78;4.95;;;;;;;;;;4993580;28;20394;-73
2022/09/03 05:28:30;;;;;;;10.82;5.50;;;;;;;;;;4994518;28;20034;-73
2022/09/03 05:31:37;;;;;;;8.15;5.07;;;;;;;;;;4994191;28;20046;-73
2022/09/03 05:34:42;;;;;;;9.45;5.53;;;;;;;;;;4993127;28;20278;-73
2022/09/03 05:37:46;;;;;;;10.05;5.75;;;;;;;;;;4994319;28;20034;-74
2022/09/03 05:40:51;;;;;;;9.07;5.22;;;;;;;;;;4994054;28;20041;-73
2022/09/03 05:43:57;;;;;;;9.35;5.90;;;;;;;;;;4993868;28;20039;-74
2022/09/03 05:47:02;;;;;;;10.60;6.40;;;;;;;;;;5004315;28;20038;-75
2022/09/03 05:50:09;;;;;;;16.17;6.68;;;;;;;;;;4992958;28;20038;-75
2022/09/03 05:53:13;;;;;;;12.60;6.78;;;;;;;;;;4992925;28;20510;-74
2022/09/03 05:56:19;;;;;;;9.57;5.93;;;;;;;;;;5004171;28;20367;-72
2022/09/03 05:59:23;;;;;;;11.82;5.80;;;;;;;;;;4993078;28;20046;-75
2022/09/03 06:02:27;;;;;;;12.32;6.47;;;;;;;;;;4993224;28;20065;-75
2022/09/03 06:05:32;;;;;;;8.15;5.20;;;;;;;;;;4993422;28;20045;-75
2022/09/03 06:08:40;;;;;;;11.98;5.32;;;;;;;;;;5003840;28;20042;-74
2022/09/03 06:11:45;;;;;;;14.73;5.50;;;;;;;;;;4992361;28;20508;-74
2022/09/03 06:14:49;;;;;;;14.15;5.53;;;;;;;;;;4993407;28;20042;-75
2022/09/03 06:17:54;;;;;;;8.98;5.40;;;;;;;;;;4992789;28;20054;-75
2022/09/03 06:20:59;;;;;;;8.48;4.20;;;;;;;;;;4993011;28;20050;-75
2022/09/03 06:24:03;;;;;;;10.38;5.03;;;;;;;;;;5003281;28;20038;-74
2022/09/03 06:27:08;;;;;;;14.18;5.18;;;;;;;;;;4992876;28;20042;-72
2022/09/03 06:30:15;;;;;;;8.68;6.43;;;;;;;;;;4992028;28;20035;-72
2022/09/03 06:33:19;;;;;;;18.65;7.18;;;;;;;;;;4990363;28;20391;-71
2022/09/03 06:36:25;;;;;;;16.98;6.05;;;;;;;;;;4990639;28;20038;-71
2022/09/03 06:39:29;;;;;;;17.08;5.28;;;;;;;;;;4990403;28;20497;-71
2022/09/03 06:42:34;;;;;;;13.80;4.53;;;;;;;;;;4989539;28;20058;-70
2022/09/03 06:45:38;;;;;;;11.85;4.57;;;;;;;;;;4989774;28;20051;-71
2022/09/03 06:48:42;;;;;;;14.40;4.50;;;;;;;;;;4992662;28;20042;-68
2022/09/03 06:51:47;;;;;;;26.67;4.07;;;;;;;;;;4992247;28;20034;-68
2022/09/03 06:54:51;;;;;;;8.75;3.40;;;;;;;;;;4991483;28;20041;-69
2022/09/03 06:57:56;;;;;;;8.00;2.95;;;;;;;;;;4992289;28;20038;-69
2022/09/03 07:01:01;;;;;;;6.00;2.05;;;;;;;;;;5002565;28;20031;-69
2022/09/03 07:04:05;;;;;;;9.65;3.03;;;;;;;;;;4992018;28;20042;-69
2022/09/03 07:07:12;;;;;;;8.80;3.10;;;;;;;;;;4991661;28;20506;-69
2022/09/03 07:10:19;;;;;;;7.18;2.83;;;;;;;;;;4992113;28;20489;-69
2022/09/03 07:13:24;;;;;;;8.85;2.90;;;;;;;;;;4991746;28;20042;-68
2022/09/03 07:16:30;;;;;;;3.90;2.40;;;;;;;;;;4991921;28;20038;-68
2022/09/03 07:19:34;;;;;;;5.82;2.10;;;;;;;;;;4991832;28;20050;-69
2022/09/03 07:22:38;;;;;;;5.65;2.13;;;;;;;;;;4991463;28;20054;-70
2022/09/03 07:25:42;;;;;;;7.25;2.50;;;;;;;;;;4991538;28;20038;-69
2022/09/03 07:28:47;;;;;;;10.65;2.58;;;;;;;;;;4991878;28;20042;-71
2022/09/03 07:31:52;;;;;;;4.32;2.45;;;;;;;;;;5002478;28;20038;-71
2022/09/03 07:34:56;;;;;;;8.23;2.92;;;;;;;;;;4991788;28;20038;-68
2022/09/03 07:38:01;;;;;;;26.60;6.55;;;;;;;;;;4991632;28;20038;-68
2022/09/03 07:41:06;;;;;;;18.85;5.18;;;;;;;;;;4991817;28;20509;-68
2022/09/03 07:44:12;;;;;;;9.90;2.97;;;;;;;;;;4991433;28;20042;-68
2022/09/03 07:47:17;;;;;;;5.05;2.60;;;;;;;;;;4991551;28;20046;-70
2022/09/03 07:50:21;;;;;;;5.30;2.38;;;;;;;;;;4979656;28;20383;-70
2022/09/03 07:53:25;;;;;;;6.45;2.00;;;;;;;;;;4991380;28;20046;-69
2022/09/03 07:56:33;;;;;;;3.97;2.22;;;;;;;;;;4989964;28;20038;-70
2022/09/03 07:59:37;;;;;;;5.28;1.55;;;;;;;;;;4991140;28;20035;-69
2022/09/03 08:02:42;;;;;;;10.20;2.08;;;;;;;;;;4990375;28;20050;-69
2022/09/03 08:05:46;;;;;;;7.38;2.55;;;;;;;;;;4991325;28;20034;-70
2022/09/03 08:08:58;;;;;;;3.80;2.17;;;;;;;;;;4991292;28;20367;-69
2022/09/03 08:12:03;;;;;;;14.40;2.22;;;;;;;;;;4991658;28;20039;-69
2022/09/03 08:15:07;;;;;;;4.68;1.90;;;;;;;;;;4991136;28;20534;-69
2022/09/03 08:18:12;;;;;;;3.95;2.00;;;;;;;;;;4991063;28;20042;-69
2022/09/03 08:21:18;;;;;;;3.10;1.58;;;;;;;;;;4991443;28;20034;-70
2022/09/03 08:24:25;;;;;;;10.07;2.75;;;;;;;;;;4991282;28;20042;-70
2022/09/03 08:27:29;;;;;;;6.25;2.25;;;;;;;;;;4990954;28;20055;-69
2022/09/03 08:30:33;;;;;;;6.28;2.10;;;;;;;;;;4990928;28;20042;-69
2022/09/03 08:33:39;;;;;;;5.70;1.80;;;;;;;;;;4990979;28;20046;-70
2022/09/03 08:36:45;;;;;;;4.35;1.73;;;;;;;;;;4990155;28;20038;-70
2022/09/03 08:39:50;;;;;;;5.78;2.05;;;;;;;;;;4991069;28;20042;-70
2022/09/03 08:43:09;;;;;;;8.82;1.90;;;;;;;;;;4990099;28;20050;-69
2022/09/03 08:46:13;;;;;;;4.30;2.45;;;;;;;;;;4990510;28;20046;-70
2022/09/03 08:49:22;;;;;;;4.13;1.98;;;;;;;;;;4990659;28;20042;-69
2022/09/03 08:52:26;;;;;;;2.55;1.75;;;;;;;;;;4990682;28;20034;-69
2022/09/03 08:55:33;;;;;;;3.30;1.83;;;;;;;;;;4991697;28;20039;-69
2022/09/03 08:58:42;;;;;;;5.38;1.70;;;;;;;;;;4994423;28;20042;-69
2022/09/03 09:01:46;;;;;;;3.45;1.95;;;;;;;;;;4994052;28;20050;-70
2022/09/03 09:05:03;;;;;;;3.72;1.80;;;;;;;;;;4994568;28;20510;-70
2022/09/03 09:08:21;;;;;;;6.28;2.08;;;;;;;;;;4994226;28;20042;-70
2022/09/03 09:11:25;;;;;;;3.40;1.90;;;;;;;;;;4993823;28;20038;-70
2022/09/03 09:14:29;;;;;;;7.45;1.95;;;;;;;;;;4993474;28;20047;-70
2022/09/03 09:18:01;;;;;;;3.50;1.90;;;;;;;;;;4992899;28;20391;-69
2022/09/03 09:21:14;;;;;;;3.58;2.40;;;;;;;;;;4993936;28;20046;-70
2022/09/03 09:24:22;;;;;;;6.53;2.00;;;;;;;;;;4994180;28;20042;-69
2022/09/03 09:27:28;;;;;;;4.95;2.17;;;;;;;;;;5004297;28;20042;-70
2022/09/03 09:30:32;;;;;;;4.18;2.20;;;;;;;;;;4993837;28;20042;-70
2022/09/03 09:33:36;;;;;;;5.05;2.22;;;;;;;;;;4993717;28;20034;-69
2022/09/03 09:36:52;;;;;;;9.60;2.30;;;;;;;;;;4993801;28;20038;-70
2022/09/03 09:39:57;;;;;;;5.38;2.60;;;;;;;;;;4993305;28;20173;-69
2022/09/03 09:43:05;;;;;;;3.45;2.08;;;;;;;;;;4993294;28;20055;-69
2022/09/03 09:46:13;;;;;;;3.72;2.05;;;;;;;;;;4993513;28;20478;-69
2022/09/03 09:49:34;;;;;;;6.25;2.40;;;;;;;;;;4992925;28;20039;-69
2022/09/03 09:52:39;;;;;;;6.05;2.13;;;;;;;;;;4993297;28;20050;-70
2022/09/03 09:55:54;;;;;;;4.32;2.00;;;;;;;;;;4993070;28;20042;-70
2022/09/03 09:59:05;;;;;;;3.35;2.17;;;;;;;;;;4993236;28;20043;-70
2022/09/03 10:02:09;;;;;;;4.65;2.33;;;;;;;;;;4993158;28;20042;-70
2022/09/03 10:05:23;;;;;;;5.80;2.40;;;;;;;;;;4993045;28;20034;-69
2022/09/03 10:08:27;;;;;;;6.13;2.20;;;;;;;;;;4992876;28;20042;-70
2022/09/03 10:11:35;;;;;;;5.72;2.67;;;;;;;;;;4993282;28;20046;-70
2022/09/03 10:14:46;;;;;;;3.67;2.28;;;;;;;;;;4993259;28;20042;-70
2022/09/03 10:17:59;;;;;;;4.78;2.03;;;;;;;;;;4992679;28;20050;-70
2022/09/03 10:21:26;;;;;;;8.48;2.38;;;;;;;;;;4992834;28;20042;-70
2022/09/03 10:24:30;;;;;;;4.78;2.78;;;;;;;;;;4992913;28;20046;-69
2022/09/03 10:27:35;;;;;;;5.93;2.88;;;;;;;;;;4991509;28;20406;-68
2022/09/03 10:30:47;;;;;;;4.65;2.42;;;;;;;;;;4992690;28;20046;-68
2022/09/03 10:34:11;;;;;;;7.10;2.72;;;;;;;;;;4992518;28;20065;-70
2022/09/03 10:37:25;;;;;;;3.90;2.55;;;;;;;;;;4992631;28;20046;-71
2022/09/03 10:40:35;;;;;;;3.55;2.30;;;;;;;;;;5002567;28;20487;-69
2022/09/03 10:43:45;;;;;;;2.10;1.70;;;;;;;;;;4992106;28;20050;-70
2022/09/03 10:46:59;;;;;;;10.60;2.90;;;;;;;;;;4992586;28;20050;-69
2022/09/03 10:50:15;;;;;;;4.22;2.38;;;;;;;;;;4992474;28;20049;-69
2022/09/03 10:53:34;;;;;;;4.72;2.55;;;;;;;;;;4992514;28;20042;-69
2022/09/03 10:56:57;;;;;;;4.80;2.60;;;;;;;;;;4992064;28;20034;-69
2022/09/03 11:00:11;;;;;;;4.45;2.60;;;;;;;;;;4992311;28;20046;-69
2022/09/03 11:03:34;;;;;;;4.97;2.67;;;;;;;;;;4991834;28;20050;-69
2022/09/03 11:06:43;;;;;;;3.97;2.13;;;;;;;;;;4991774;28;20043;-70
2022/09/03 11:10:17;;;;;;;3.60;2.47;;;;;;;;;;4991114;28;20038;-71
2022/09/03 11:13:26;;;;;;;5.20;2.70;;;;;;;;;;4991786;28;20050;-71
2022/09/03 11:16:32;;;;;;;4.20;2.83;;;;;;;;;;4991801;28;20046;-70
2022/09/03 11:19:40;;;;;;;4.07;2.38;;;;;;;;;;4991725;28;20117;-70
2022/09/03 11:22:46;;;;;;;3.63;2.47;;;;;;;;;;4991873;28;20058;-69
2022/09/03 11:25:53;;;;;;;4.40;2.80;;;;;;;;;;4991770;28;20038;-68
2022/09/03 11:28:59;;;;;;;4.47;2.45;;;;;;;;;;4991661;28;20407;-70
2022/09/03 11:32:07;;;;;;;4.93;2.60;;;;;;;;;;4991027;28;20034;-69
2022/09/03 11:35:34;;;;;;;5.20;2.25;;;;;;;;;;4990435;28;20039;-68
2022/09/03 11:38:39;;;;;;;7.55;2.55;;;;;;;;;;4991571;28;20031;-69
2022/09/03 11:41:44;;;;;;;5.78;3.22;;;;;;;;;;4990550;28;20050;-70
2022/09/03 11:44:50;;;;;;;4.57;2.40;;;;;;;;;;4991652;28;20034;-69
2022/09/03 11:47:55;;;;;;;5.13;2.60;;;;;;;;;;4991323;28;20046;-69
2022/09/03 11:50:59;;;;;;;7.63;2.47;;;;;;;;;;4991598;28;20042;-70
2022/09/03 11:54:03;;;;;;;3.97;2.55;;;;;;;;;;4991566;28;20030;-71
2022/09/03 11:57:09;;;;;;;6.25;2.30;;;;;;;;;;4991509;28;20038;-76
2022/09/03 12:00:21;;;;;;;4.63;2.40;;;;;;;;;;4990350;28;20034;-74
2022/09/03 12:03:35;;;;;;;4.32;2.65;;;;;;;;;;4990507;28;20054;-73
2022/09/03 12:06:59;;;;;;;4.80;2.70;;;;;;;;;;4991118;28;20038;-74
2022/09/03 12:10:03;;;;;;;4.32;2.40;;;;;;;;;;4991343;28;20054;-73
2022/09/03 12:13:10;;;;;;;5.90;3.15;;;;;;;;;;4991807;28;20034;-73
2022/09/03 12:16:23;;;;;;;3.15;2.40;;;;;;;;;;4991543;28;20050;-73
2022/09/03 12:19:31;;;;;;;6.28;2.88;;;;;;;;;;5001687;28;20038;-73
2022/09/03 12:22:37;;;;;;;4.50;2.35;;;;;;;;;;4991193;28;20047;-73
2022/09/03 12:25:48;;;;;;;6.13;2.08;;;;;;;;;;4991043;28;20498;-73
2022/09/03 12:28:56;;;;;;;3.17;1.90;;;;;;;;;;4990336;28;20387;-73
2022/09/03 12:32:08;;;;;;;3.10;1.75;;;;;;;;;;4995121;28;20042;-73
2022/09/03 12:35:17;;;;;;;5.72;2.10;;;;;;;;;;4995035;28;20490;-73
2022/09/03 12:38:25;;;;;;;3.00;1.70;;;;;;;;;;4994877;28;20030;-73
2022/09/03 12:41:30;;;;;;;1.92;1.70;;;;;;;;;;4994968;28;20034;-73
2022/09/03 12:44:34;;;;;;;3.85;1.52;;;;;;;;;;4995074;28;20050;-73
2022/09/03 12:47:39;;;;;;;3.33;1.67;;;;;;;;;;4994711;28;20034;-73
2022/09/03 12:50:45;;;;;;;5.00;1.73;;;;;;;;;;4994960;28;20038;-73
2022/09/03 12:53:50;;;;;;;2.42;1.50;;;;;;;;;;4994644;28;20038;-73
2022/09/03 12:56:57;;;;;;;2.55;1.40;;;;;;;;;;4994680;28;20046;-73
2022/09/03 13:00:09;;;;;;;12.05;2.20;;;;;;;;;;4994593;28;20038;-73
2022/09/03 13:03:25;;;;;;;6.72;1.83;;;;;;;;;;4993399;28;20398;-73
2022/09/03 13:06:33;;;;;;;5.30;1.50;;;;;;;;;;4994517;28;20039;-73
2022/09/03 13:09:39;;;;;;;4.32;1.50;;;;;;;;;;4994368;28;20046;-73
2022/09/03 13:12:46;;;;;;;2.80;1.52;;;;;;;;;;4994544;28;20039;-73
2022/09/03 13:16:03;;;;;;;4.43;1.60;;;;;;;;;;5004534;28;20042;-73
2022/09/03 13:19:10;;;;;;;3.60;1.88;;;;;;;;;;4994031;28;20042;-73
2022/09/03 13:22:36;;;;;;;2.65;1.50;;;;;;;;;;4994020;28;20050;-73
2022/09/03 13:25:53;;;;;;;3.72;1.92;;;;;;;;;;4993121;28;20387;-73
2022/09/03 13:29:09;;;;;;;2.20;1.40;;;;;;;;;;4993987;28;20038;-73
2022/09/03 13:32:32;;;;;;;3.33;1.40;;;;;;;;;;5004645;28;20360;-73
2022/09/03 13:36:00;;;;;;;3.35;1.23;;;;;;;;;;4993791;28;20034;-73
2022/09/03 13:39:17;;;;;;;3.53;1.42;;;;;;;;;;4993737;28;20042;-73
2022/09/03 13:42:25;;;;;;;6.68;1.55;;;;;;;;;;4993079;28;20372;-73
2022/09/03 13:45:38;;;;;;;1.63;1.20;;;;;;;;;;4993422;28;20034;-73
2022/09/03 13:52:38;;;;;;;2.33;1.38;;;;;;;;;;4993293;28;20399;-73
2022/09/03 13:55:42;;;;;;;;;;;;;;;;;;4994122;28;20042;-73
2022/09/03 13:58:56;;;;;;;3.35;1.45;;;;;;;;;;4993290;28;19924;-73
2022/09/03 14:02:11;;;;;;;2.17;1.20;;;;;;;;;;4993262;28;20046;-73
2022/09/03 14:05:19;;;;;;;3.60;1.20;;;;;;;;;;4993431;28;20467;-72
2022/09/03 14:08:23;;;;;;;3.03;1.55;;;;;;;;;;4993530;28;20042;-73
2022/09/03 14:11:40;;;;;;;5.70;1.42;;;;;;;;;;4993363;28;20034;-73
2022/09/03 14:14:51;;;;;;;5.78;1.30;;;;;;;;;;4992528;28;20042;-73
2022/09/03 14:17:59;;;;;;;5.35;1.73;;;;;;;;;;4992376;28;20059;-73
2022/09/03 14:21:23;;;;;;;3.55;1.20;;;;;;;;;;5003603;28;20039;-71
2022/09/03 14:24:36;;;;;;;4.35;1.30;;;;;;;;;;4993136;28;20046;-72
2022/09/03 14:27:40;;;;;;;6.50;1.50;;;;;;;;;;4992795;28;20039;-72
2022/09/03 14:31:03;;;;;;;5.07;1.60;;;;;;;;;;4992608;28;20039;-72
2022/09/03 14:34:13;;;;;;;2.20;1.25;;;;;;;;;;5002769;28;20494;-73
2022/09/03 14:37:44;;;;;;;2.08;1.55;;;;;;;;;;4992508;28;20038;-71
2022/09/03 14:41:06;;;;;;;7.22;2.03;;;;;;;;;;4992698;28;20494;-71
2022/09/03 14:44:30;;;;;;;16.48;2.78;;;;;;;;;;4992539;28;20054;-72
2022/09/03 14:47:34;;;;;;;4.80;2.05;;;;;;;;;;5002690;28;20046;-72
2022/09/03 14:50:48;;;;;;;2.38;1.50;;;;;;;;;;4992278;28;20133;-72
2022/09/03 14:53:54;;;;;;;3.50;1.30;;;;;;;;;;4991464;28;20486;-72
2022/09/03 14:57:17;;;;;;;6.90;1.50;;;;;;;;;;4992297;28;20042;-72
2022/09/03 15:00:27;;;;;;;3.38;1.30;;;;;;;;;;4992274;28;20568;-72
2022/09/03 15:03:49;;;;;;;4.30;1.33;;;;;;;;;;4992043;28;20050;-72
2022/09/03 15:06:57;;;;;;;3.42;1.38;;;;;;;;;;4992066;28;20410;-73
2022/09/03 15:10:01;;;;;;;5.15;1.50;;;;;;;;;;5002622;28;20042;-73
2022/09/03 15:13:10;;;;;;;2.08;1.17;;;;;;;;;;4979706;28;20038;-73
2022/09/03 15:16:27;;;;;;;3.17;1.15;;;;;;;;;;5002358;28;20368;-73
2022/09/03 15:19:39;;;;;;;2.92;1.42;;;;;;;;;;4991027;28;20050;-73
2022/09/03 15:22:56;;;;;;;2.20;1.30;;;;;;;;;;4991903;28;20039;-72
2022/09/03 15:26:06;;;;;;;3.42;1.77;;;;;;;;;;4991113;28;20486;-73
2022/09/03 15:29:13;;;;;;;5.88;1.67;;;;;;;;;;4991049;28;20042;-73
2022/09/03 15:32:30;;;;;;;2.75;1.20;;;;;;;;;;4991464;28;20047;-72
2022/09/03 15:35:55;;;;;;;2.80;1.20;;;;;;;;;;4991635;28;20038;-73
2022/09/03 15:39:02;;;;;;;3.38;1.30;;;;;;;;;;4991587;28;20030;-73
2022/09/03 15:42:06;;;;;;;2.85;1.10;;;;;;;;;;4990419;28;20046;-72
2022/09/03 15:45:18;;;;;;;2.35;1.45;;;;;;;;;;4991278;28;20038;-72
2022/09/03 15:48:28;;;;;;;3.15;1.75;;;;;;;;;;4991419;28;20038;-72
2022/09/03 15:51:34;;;;;;;3.75;1.10;;;;;;;;;;4991680;28;20046;-73
2022/09/03 15:54:52;;;;;;;1.45;1.20;;;;;;;;;;4990898;28;20039;-72
2022/09/03 15:58:08;;;;;;;2.22;1.17;;;;;;;;;;4991452;28;20038;-73
2022/09/03 16:01:20;;;;;;;6.30;1.35;;;;;;;;;;4991065;28;20034;-73
2022/09/03 16:04:43;;;;;;;3.03;1.42;;;;;;;;;;4992737;28;20050;-73
2022/09/03 16:08:04;;;;;;;2.83;1.33;;;;;;;;;;4995058;28;20038;-72
2022/09/03 16:11:08;;;;;;;3.88;1.45;;;;;;;;;;4994267;28;20046;-73
2022/09/03 16:14:20;;;;;;;2.30;1.52;;;;;;;;;;5005569;28;20039;-73
2022/09/03 16:17:31;;;;;;;1.83;1.10;;;;;;;;;;4994873;28;20384;-73
2022/09/03 16:20:37;;;;;;;3.92;1.55;;;;;;;;;;4994971;28;20426;-73
2022/09/03 16:23:52;;;;;;;2.78;1.40;;;;;;;;;;4994711;28;20050;-72
2022/09/03 16:27:04;;;;;;;3.40;1.30;;;;;;;;;;4994912;28;20046;-72
2022/09/03 16:30:21;;;;;;;4.20;1.55;;;;;;;;;;4994120;28;20050;-73
2022/09/03 16:33:28;;;;;;;1.95;1.20;;;;;;;;;;4994251;28;20042;-73
2022/09/03 16:36:44;;;;;;;4.78;1.40;;;;;;;;;;4994402;28;20038;-72
2022/09/03 16:40:08;;;;;;;1.95;1.10;;;;;;;;;;4994153;28;20038;-72
2022/09/03 16:43:15;;;;;;;2.65;1.35;;;;;;;;;;4994293;28;20054;-73
2022/09/03 16:46:23;;;;;;;2.28;1.23;;;;;;;;;;4994353;28;20039;-72
2022/09/03 16:49:46;;;;;;;3.83;1.63;;;;;;;;;;4994351;28;20042;-72
2022/09/03 16:52:59;;;;;;;3.33;1.63;;;;;;;;;;4993739;28;20038;-72
2022/09/03 16:56:33;;;;;;;4.90;1.50;;;;;;;;;;4994566;28;20038;-72
2022/09/03 16:59:40;;;;;;;7.75;1.90;;;;;;;;;;4994175;28;20042;-74
2022/09/03 17:02:59;;;;;;;3.78;2.13;;;;;;;;;;5004454;28;20046;-73
2022/09/03 17:06:22;;;;;;;9.10;1.95;;;;;;;;;;4994496;28;20042;-73
2022/09/03 17:09:50;;;;;;;4.40;1.50;;;;;;;;;;4994133;28;20042;-73
2022/09/03 17:13:12;;;;;;;2.58;1.38;;;;;;;;;;4993708;28;20379;-73
2022/09/03 17:16:36;;;;;;;4.78;1.40;;;;;;;;;;4991904;28;20038;-73
2022/09/03 17:19:50;;;;;;;4.88;1.88;;;;;;;;;;5004321;28;20042;-73
2022/09/03 17:23:09;;;;;;;4.50;1.55;;;;;;;;;;4993906;28;20046;-73
2022/09/03 17:26:39;;;;;;;4.82;1.85;;;;;;;;;;4993835;28;20046;-73
2022/09/03 17:30:02;;;;;;;3.08;1.80;;;;;;;;;;4992893;28;20038;-73
2022/09/03 17:33:15;;;;;;;4.88;1.58;;;;;;;;;;4992655;28;20054;-72
2022/09/03 17:36:38;;;;;;;12.18;2.03;;;;;;;;;;4993900;28;20416;-73
2022/09/03 17:39:48;;;;;;;4.57;1.95;;;;;;;;;;4993037;28;20138;-73
2022/09/03 17:43:03;;;;;;;6.35;1.73;;;;;;;;;;4993238;28;20034;-72
2022/09/03 17:46:28;;;;;;;6.50;2.00;;;;;;;;;;4993158;28;20494;-72
2022/09/03 17:49:34;;;;;;;7.25;2.38;;;;;;;;;;5003624;28;20380;-72
2022/09/03 17:52:42;;;;;;;9.77;2.25;;;;;;;;;;4993120;28;20038;-72
2022/09/03 17:56:10;;;;;;;7.20;2.65;;;;;;;;;;4991929;28;20039;-72
2022/09/03 17:59:22;;;;;;;4.72;2.20;;;;;;;;;;4992139;28;20042;-71
2022/09/03 18:02:36;;;;;;;4.32;2.90;;;;;;;;;;4993088;28;20050;-71
2022/09/03 18:05:44;;;;;;;9.48;3.30;;;;;;;;;;5003117;28;20380;-71
2022/09/03 18:09:02;;;;;;;10.18;3.50;;;;;;;;;;4992840;28;20034;-71
2022/09/03 18:12:14;;;;;;;11.48;4.00;;;;;;;;;;4992534;28;20050;-71
2022/09/03 18:15:21;;;;;;;10.18;3.90;;;;;;;;;;4992620;28;20042;-71
2022/09/03 18:18:27;;;;;;;7.43;3.05;;;;;;;;;;4992318;28;20374;-71
2022/09/03 20:13:27;;;;;;;17.95;6.50;;;;;;;;;;4991106;28;20041;-72
2022/09/03 20:16:34;;;;;;;12.48;5.75;;;;;;;;;;4991158;28;20042;-72
2022/09/03 20:19:44;;;;;;;13.77;6.93;;;;;;;;;;4990705;28;20054;-72
2022/09/03 20:22:55;;;;;;;14.43;7.07;;;;;;;;;;4991073;28;20053;-72
2022/09/03 20:26:10;;;;;;;13.00;6.50;;;;;;;;;;4991046;28;20042;-72
2022/09/03 20:29:33;;;;;;;12.52;6.43;;;;;;;;;;4990755;28;20035;-72
2022/09/03 20:32:43;;;;;;;13.02;7.68;;;;;;;;;;4991142;28;20042;-72
2022/09/03 20:35:47;;;;;;;25.65;10.63;;;;;;;;;;5001381;28;20034;-72
2022/09/03 20:38:58;;;;;;;18.40;11.02;;;;;;;;;;4990985;28;20153;-72
2022/09/03 20:42:21;;;;;;;22.02;13.20;;;;;;;;;;4990976;28;20045;-72
2022/09/03 20:45:31;;;;;;;19.85;11.98;;;;;;;;;;4991007;28;20049;-72
2022/09/03 20:48:44;;;;;;;19.92;13.52;;;;;;;;;;4990876;28;20050;-72
2022/09/03 20:52:06;;;;;;;25.48;13.48;;;;;;;;;;4992891;28;20042;-72